sensor_id;sensor_type;location;lat;lon;timestamp;P1;durP1;ratioP1;P2;durP2;ratioP2
1829;SDS011;914;48.118;11.600;2022-12-18T00:03:57;40.10;;;20.23;;
1829;SDS011;914;48.118;11.600;2022-12-18T00:06:24;44.30;;;20.37;;
1829;SDS011;914;48.118;11.600;2022-12-18T00:08:52;43.67;;;21.10;;
1829;SDS011;914;48.118;11.600;2022-12-18T00:11:18;43.93;;;20.20;;
1829;SDS011;914;48.118;11.600;2022-12-18T00:13:48;46.67;;;19.70;;
1829;SDS011;914;48.118;11.600;2022-12-18T00:16:15;44.97;;;20.47;;
1829;SDS011;914;48.118;11.600;2022-12-18T00:18:46;42.43;;;21.30;;
1829;SDS011;914;48.118;11.600;2022-12-18T00:21:13;48.77;;;22.53;;
1829;SDS011;914;48.118;11.600;2022-12-18T00:23:39;50.27;;;22.20;;
1829;SDS011;914;48.118;11.600;2022-12-18T00:26:07;52.73;;;23.73;;
1829;SDS011;914;48.118;11.600;2022-12-18T00:28:36;52.23;;;23.03;;
1829;SDS011;914;48.118;11.600;2022-12-18T00:31:09;43.80;;;22.00;;
1829;SDS011;914;48.118;11.600;2022-12-18T00:33:39;53.73;;;22.90;;
1829;SDS011;914;48.118;11.600;2022-12-18T00:36:09;47.93;;;21.93;;
1829;SDS011;914;48.118;11.600;2022-12-18T00:38:39;43.53;;;21.30;;
1829;SDS011;914;48.118;11.600;2022-12-18T00:41:05;44.87;;;22.13;;
1829;SDS011;914;48.118;11.600;2022-12-18T00:43:31;47.27;;;21.50;;
1829;SDS011;914;48.118;11.600;2022-12-18T00:45:57;52.43;;;22.53;;
1829;SDS011;914;48.118;11.600;2022-12-18T00:48:23;43.90;;;21.63;;
1829;SDS011;914;48.118;11.600;2022-12-18T00:50:49;44.83;;;20.33;;
1829;SDS011;914;48.118;11.600;2022-12-18T00:53:15;44.20;;;19.77;;
1829;SDS011;914;48.118;11.600;2022-12-18T00:55:42;45.90;;;21.73;;
1829;SDS011;914;48.118;11.600;2022-12-18T00:58:11;47.23;;;22.83;;
1829;SDS011;914;48.118;11.600;2022-12-18T01:00:39;44.07;;;20.33;;
1829;SDS011;914;48.118;11.600;2022-12-18T01:03:05;38.37;;;17.60;;
1829;SDS011;914;48.118;11.600;2022-12-18T01:05:31;41.50;;;19.27;;
1829;SDS011;914;48.118;11.600;2022-12-18T01:07:57;43.90;;;20.00;;
1829;SDS011;914;48.118;11.600;2022-12-18T01:10:23;42.63;;;20.37;;
1829;SDS011;914;48.118;11.600;2022-12-18T01:12:52;39.80;;;19.07;;
1829;SDS011;914;48.118;11.600;2022-12-18T01:15:18;40.03;;;19.40;;
1829;SDS011;914;48.118;11.600;2022-12-18T01:17:44;40.97;;;19.33;;
1829;SDS011;914;48.118;11.600;2022-12-18T01:20:15;45.90;;;19.87;;
1829;SDS011;914;48.118;11.600;2022-12-18T01:22:41;44.23;;;20.47;;
1829;SDS011;914;48.118;11.600;2022-12-18T01:25:07;41.50;;;20.40;;
1829;SDS011;914;48.118;11.600;2022-12-18T01:27:36;44.93;;;20.80;;
1829;SDS011;914;48.118;11.600;2022-12-18T01:30:04;28.53;;;14.03;;
1829;SDS011;914;48.118;11.600;2022-12-18T01:32:31;40.70;;;19.60;;
1829;SDS011;914;48.118;11.600;2022-12-18T01:34:59;41.50;;;19.17;;
1829;SDS011;914;48.118;11.600;2022-12-18T01:37:25;43.00;;;20.70;;
1829;SDS011;914;48.118;11.600;2022-12-18T01:39:54;42.93;;;20.80;;
1829;SDS011;914;48.118;11.600;2022-12-18T01:42:23;48.90;;;21.40;;
1829;SDS011;914;48.118;11.600;2022-12-18T01:45:06;45.90;;;21.63;;
1829;SDS011;914;48.118;11.600;2022-12-18T01:50:19;47.17;;;22.80;;
1829;SDS011;914;48.118;11.600;2022-12-18T01:52:58;47.40;;;21.37;;
1829;SDS011;914;48.118;11.600;2022-12-18T01:55:29;46.53;;;21.53;;
1829;SDS011;914;48.118;11.600;2022-12-18T02:01:08;51.63;;;22.73;;
1829;SDS011;914;48.118;11.600;2022-12-18T02:03:34;48.63;;;22.40;;
1829;SDS011;914;48.118;11.600;2022-12-18T02:06:08;51.70;;;22.10;;
1829;SDS011;914;48.118;11.600;2022-12-18T02:11:53;53.33;;;22.40;;
1829;SDS011;914;48.118;11.600;2022-12-18T02:14:44;46.17;;;21.67;;
1829;SDS011;914;48.118;11.600;2022-12-18T02:17:21;48.30;;;21.97;;
1829;SDS011;914;48.118;11.600;2022-12-18T02:19:59;49.13;;;21.47;;
1829;SDS011;914;48.118;11.600;2022-12-18T02:22:49;43.93;;;20.37;;
1829;SDS011;914;48.118;11.600;2022-12-18T02:28:28;40.07;;;19.03;;
1829;SDS011;914;48.118;11.600;2022-12-18T02:30:58;46.23;;;21.57;;
1829;SDS011;914;48.118;11.600;2022-12-18T02:33:27;45.53;;;21.27;;
1829;SDS011;914;48.118;11.600;2022-12-18T02:35:58;49.80;;;23.57;;
1829;SDS011;914;48.118;11.600;2022-12-18T02:38:25;51.97;;;22.80;;
1829;SDS011;914;48.118;11.600;2022-12-18T02:40:52;48.53;;;23.40;;
1829;SDS011;914;48.118;11.600;2022-12-18T02:43:19;54.83;;;24.80;;
1829;SDS011;914;48.118;11.600;2022-12-18T02:45:49;53.00;;;23.10;;
1829;SDS011;914;48.118;11.600;2022-12-18T02:48:22;53.67;;;22.97;;
1829;SDS011;914;48.118;11.600;2022-12-18T02:51:08;43.87;;;20.37;;
1829;SDS011;914;48.118;11.600;2022-12-18T02:53:49;47.17;;;22.47;;
1829;SDS011;914;48.118;11.600;2022-12-18T02:56:35;47.97;;;23.07;;
1829;SDS011;914;48.118;11.600;2022-12-18T02:59:15;53.40;;;22.43;;
1829;SDS011;914;48.118;11.600;2022-12-18T03:07:04;52.83;;;22.63;;
1829;SDS011;914;48.118;11.600;2022-12-18T03:09:38;46.20;;;21.90;;
1829;SDS011;914;48.118;11.600;2022-12-18T03:12:18;26.30;;;12.30;;
1829;SDS011;914;48.118;11.600;2022-12-18T03:17:40;46.20;;;21.63;;
1829;SDS011;914;48.118;11.600;2022-12-18T03:20:19;44.50;;;21.30;;
1829;SDS011;914;48.118;11.600;2022-12-18T03:22:50;46.07;;;20.50;;
1829;SDS011;914;48.118;11.600;2022-12-18T03:25:22;44.87;;;22.83;;
1829;SDS011;914;48.118;11.600;2022-12-18T03:27:51;47.67;;;22.40;;
1829;SDS011;914;48.118;11.600;2022-12-18T03:30:21;52.40;;;24.50;;
1829;SDS011;914;48.118;11.600;2022-12-18T03:32:52;49.97;;;23.00;;
1829;SDS011;914;48.118;11.600;2022-12-18T03:35:35;49.57;;;23.10;;
1829;SDS011;914;48.118;11.600;2022-12-18T03:38:07;55.37;;;23.53;;
1829;SDS011;914;48.118;11.600;2022-12-18T03:40:45;45.37;;;21.97;;
1829;SDS011;914;48.118;11.600;2022-12-18T03:49:08;51.53;;;23.63;;
1829;SDS011;914;48.118;11.600;2022-12-18T03:51:43;49.17;;;23.27;;
1829;SDS011;914;48.118;11.600;2022-12-18T03:54:43;49.27;;;21.93;;
1829;SDS011;914;48.118;11.600;2022-12-18T03:57:16;46.20;;;22.13;;
1829;SDS011;914;48.118;11.600;2022-12-18T03:59:52;47.37;;;23.07;;
1829;SDS011;914;48.118;11.600;2022-12-18T04:02:21;47.93;;;22.67;;
1829;SDS011;914;48.118;11.600;2022-12-18T04:04:50;51.33;;;22.87;;
1829;SDS011;914;48.118;11.600;2022-12-18T04:07:18;45.47;;;21.47;;
1829;SDS011;914;48.118;11.600;2022-12-18T04:09:48;51.10;;;23.20;;
1829;SDS011;914;48.118;11.600;2022-12-18T04:12:18;46.73;;;22.83;;
1829;SDS011;914;48.118;11.600;2022-12-18T04:14:49;42.20;;;21.77;;
1829;SDS011;914;48.118;11.600;2022-12-18T04:17:14;52.70;;;24.57;;
1829;SDS011;914;48.118;11.600;2022-12-18T04:19:40;48.27;;;22.97;;
1829;SDS011;914;48.118;11.600;2022-12-18T04:22:05;50.67;;;23.47;;
1829;SDS011;914;48.118;11.600;2022-12-18T04:24:31;44.60;;;23.07;;
1829;SDS011;914;48.118;11.600;2022-12-18T04:26:57;48.67;;;23.60;;
1829;SDS011;914;48.118;11.600;2022-12-18T04:29:25;50.97;;;22.77;;
1829;SDS011;914;48.118;11.600;2022-12-18T04:31:51;42.57;;;22.17;;
1829;SDS011;914;48.118;11.600;2022-12-18T04:34:20;47.87;;;22.93;;
1829;SDS011;914;48.118;11.600;2022-12-18T04:36:52;41.40;;;19.40;;
1829;SDS011;914;48.118;11.600;2022-12-18T04:39:17;43.37;;;22.47;;
1829;SDS011;914;48.118;11.600;2022-12-18T04:41:43;41.17;;;20.13;;
1829;SDS011;914;48.118;11.600;2022-12-18T04:44:09;41.07;;;19.60;;
1829;SDS011;914;48.118;11.600;2022-12-18T04:46:34;48.63;;;22.43;;
1829;SDS011;914;48.118;11.600;2022-12-18T04:49:00;45.33;;;21.87;;
1829;SDS011;914;48.118;11.600;2022-12-18T04:51:26;41.40;;;20.33;;
1829;SDS011;914;48.118;11.600;2022-12-18T04:53:54;37.00;;;18.33;;
1829;SDS011;914;48.118;11.600;2022-12-18T04:56:20;39.43;;;20.30;;
1829;SDS011;914;48.118;11.600;2022-12-18T04:58:46;42.37;;;19.60;;
1829;SDS011;914;48.118;11.600;2022-12-18T05:01:12;41.13;;;20.13;;
1829;SDS011;914;48.118;11.600;2022-12-18T05:03:42;37.57;;;18.37;;
1829;SDS011;914;48.118;11.600;2022-12-18T05:06:08;40.43;;;19.67;;
1829;SDS011;914;48.118;11.600;2022-12-18T05:08:38;39.00;;;17.70;;
1829;SDS011;914;48.118;11.600;2022-12-18T05:11:10;39.33;;;19.47;;
1829;SDS011;914;48.118;11.600;2022-12-18T05:13:40;43.50;;;20.57;;
1829;SDS011;914;48.118;11.600;2022-12-18T05:16:07;36.47;;;18.00;;
1829;SDS011;914;48.118;11.600;2022-12-18T05:18:33;40.03;;;19.87;;
1829;SDS011;914;48.118;11.600;2022-12-18T05:20:59;38.93;;;19.97;;
1829;SDS011;914;48.118;11.600;2022-12-18T05:23:28;35.93;;;19.00;;
1829;SDS011;914;48.118;11.600;2022-12-18T05:25:55;37.33;;;19.23;;
1829;SDS011;914;48.118;11.600;2022-12-18T05:28:26;35.23;;;18.43;;
1829;SDS011;914;48.118;11.600;2022-12-18T05:30:58;38.40;;;18.03;;
1829;SDS011;914;48.118;11.600;2022-12-18T05:33:26;36.10;;;17.90;;
1829;SDS011;914;48.118;11.600;2022-12-18T05:36:00;33.07;;;17.63;;
1829;SDS011;914;48.118;11.600;2022-12-18T05:38:31;38.53;;;18.83;;
1829;SDS011;914;48.118;11.600;2022-12-18T05:41:01;34.07;;;17.27;;
1829;SDS011;914;48.118;11.600;2022-12-18T05:43:31;40.23;;;20.17;;
1829;SDS011;914;48.118;11.600;2022-12-18T05:46:01;38.50;;;19.10;;
1829;SDS011;914;48.118;11.600;2022-12-18T05:48:28;40.60;;;20.03;;
1829;SDS011;914;48.118;11.600;2022-12-18T05:50:54;36.50;;;18.40;;
1829;SDS011;914;48.118;11.600;2022-12-18T05:53:20;35.17;;;16.50;;
1829;SDS011;914;48.118;11.600;2022-12-18T05:55:46;36.47;;;18.27;;
1829;SDS011;914;48.118;11.600;2022-12-18T05:58:12;34.93;;;16.43;;
1829;SDS011;914;48.118;11.600;2022-12-18T06:00:39;35.37;;;17.33;;
1829;SDS011;914;48.118;11.600;2022-12-18T06:03:10;33.80;;;16.37;;
1829;SDS011;914;48.118;11.600;2022-12-18T06:05:41;36.60;;;18.53;;
1829;SDS011;914;48.118;11.600;2022-12-18T06:08:08;37.57;;;18.27;;
1829;SDS011;914;48.118;11.600;2022-12-18T06:10:35;24.93;;;12.80;;
1829;SDS011;914;48.118;11.600;2022-12-18T06:13:01;35.77;;;19.00;;
1829;SDS011;914;48.118;11.600;2022-12-18T06:15:30;35.87;;;17.70;;
1829;SDS011;914;48.118;11.600;2022-12-18T06:17:56;41.23;;;19.90;;
1829;SDS011;914;48.118;11.600;2022-12-18T06:20:22;37.03;;;18.40;;
1829;SDS011;914;48.118;11.600;2022-12-18T06:22:48;34.73;;;17.07;;
1829;SDS011;914;48.118;11.600;2022-12-18T06:25:17;33.33;;;17.90;;
1829;SDS011;914;48.118;11.600;2022-12-18T06:27:43;33.93;;;17.00;;
1829;SDS011;914;48.118;11.600;2022-12-18T06:30:12;35.87;;;18.20;;
1829;SDS011;914;48.118;11.600;2022-12-18T06:32:40;34.30;;;18.00;;
1829;SDS011;914;48.118;11.600;2022-12-18T06:35:06;35.57;;;17.47;;
1829;SDS011;914;48.118;11.600;2022-12-18T06:37:32;32.37;;;17.63;;
1829;SDS011;914;48.118;11.600;2022-12-18T06:39:58;18.20;;;9.30;;
1829;SDS011;914;48.118;11.600;2022-12-18T06:42:24;33.33;;;17.53;;
1829;SDS011;914;48.118;11.600;2022-12-18T06:44:50;35.53;;;17.40;;
1829;SDS011;914;48.118;11.600;2022-12-18T06:47:18;37.50;;;18.13;;
1829;SDS011;914;48.118;11.600;2022-12-18T06:49:44;33.77;;;17.93;;
1829;SDS011;914;48.118;11.600;2022-12-18T06:52:10;32.23;;;16.87;;
1829;SDS011;914;48.118;11.600;2022-12-18T06:54:39;36.53;;;16.87;;
1829;SDS011;914;48.118;11.600;2022-12-18T06:57:08;31.23;;;16.07;;
1829;SDS011;914;48.118;11.600;2022-12-18T06:59:33;31.03;;;16.17;;
1829;SDS011;914;48.118;11.600;2022-12-18T07:01:59;38.73;;;18.87;;
1829;SDS011;914;48.118;11.600;2022-12-18T07:04:28;34.00;;;17.30;;
1829;SDS011;914;48.118;11.600;2022-12-18T07:06:57;33.63;;;18.40;;
1829;SDS011;914;48.118;11.600;2022-12-18T07:09:23;36.97;;;17.30;;
1829;SDS011;914;48.118;11.600;2022-12-18T07:11:49;39.97;;;19.00;;
1829;SDS011;914;48.118;11.600;2022-12-18T07:14:15;37.17;;;17.63;;
1829;SDS011;914;48.118;11.600;2022-12-18T07:16:44;32.00;;;17.37;;
1829;SDS011;914;48.118;11.600;2022-12-18T07:19:09;39.87;;;19.17;;
1829;SDS011;914;48.118;11.600;2022-12-18T07:21:35;35.27;;;18.57;;
1829;SDS011;914;48.118;11.600;2022-12-18T07:24:04;27.07;;;14.33;;
1829;SDS011;914;48.118;11.600;2022-12-18T07:26:32;12.00;;;7.03;;
1829;SDS011;914;48.118;11.600;2022-12-18T07:28:58;34.80;;;17.47;;
1829;SDS011;914;48.118;11.600;2022-12-18T07:31:24;31.97;;;16.53;;
1829;SDS011;914;48.118;11.600;2022-12-18T07:33:51;34.67;;;17.63;;
1829;SDS011;914;48.118;11.600;2022-12-18T07:36:20;33.17;;;16.27;;
1829;SDS011;914;48.118;11.600;2022-12-18T07:38:47;38.47;;;17.83;;
1829;SDS011;914;48.118;11.600;2022-12-18T07:41:13;35.97;;;17.63;;
1829;SDS011;914;48.118;11.600;2022-12-18T07:43:42;34.77;;;18.20;;
1829;SDS011;914;48.118;11.600;2022-12-18T07:46:08;32.90;;;17.07;;
1829;SDS011;914;48.118;11.600;2022-12-18T07:48:35;38.43;;;18.73;;
1829;SDS011;914;48.118;11.600;2022-12-18T07:51:01;34.47;;;15.80;;
1829;SDS011;914;48.118;11.600;2022-12-18T07:53:29;31.77;;;16.43;;
1829;SDS011;914;48.118;11.600;2022-12-18T07:55:56;33.27;;;16.63;;
1829;SDS011;914;48.118;11.600;2022-12-18T07:58:27;28.43;;;15.90;;
1829;SDS011;914;48.118;11.600;2022-12-18T08:00:53;36.43;;;17.57;;
1829;SDS011;914;48.118;11.600;2022-12-18T08:03:19;32.57;;;14.50;;
1829;SDS011;914;48.118;11.600;2022-12-18T08:05:45;36.13;;;17.47;;
1829;SDS011;914;48.118;11.600;2022-12-18T08:08:11;29.90;;;15.00;;
1829;SDS011;914;48.118;11.600;2022-12-18T08:10:37;31.27;;;17.20;;
1829;SDS011;914;48.118;11.600;2022-12-18T08:13:03;34.03;;;16.57;;
1829;SDS011;914;48.118;11.600;2022-12-18T08:15:28;30.30;;;16.47;;
1829;SDS011;914;48.118;11.600;2022-12-18T08:17:57;36.00;;;16.57;;
1829;SDS011;914;48.118;11.600;2022-12-18T08:20:23;32.00;;;17.13;;
1829;SDS011;914;48.118;11.600;2022-12-18T08:22:49;31.23;;;15.90;;
1829;SDS011;914;48.118;11.600;2022-12-18T08:25:14;28.00;;;12.80;;
1829;SDS011;914;48.118;11.600;2022-12-18T08:27:40;35.23;;;16.27;;
1829;SDS011;914;48.118;11.600;2022-12-18T08:30:06;25.30;;;12.80;;
1829;SDS011;914;48.118;11.600;2022-12-18T08:32:32;30.90;;;15.93;;
1829;SDS011;914;48.118;11.600;2022-12-18T08:34:58;29.10;;;15.50;;
1829;SDS011;914;48.118;11.600;2022-12-18T08:37:24;33.47;;;16.43;;
1829;SDS011;914;48.118;11.600;2022-12-18T08:39:50;31.00;;;16.23;;
1829;SDS011;914;48.118;11.600;2022-12-18T08:42:15;29.53;;;14.87;;
1829;SDS011;914;48.118;11.600;2022-12-18T08:44:59;29.87;;;15.83;;
1829;SDS011;914;48.118;11.600;2022-12-18T08:47:25;33.57;;;16.07;;
1829;SDS011;914;48.118;11.600;2022-12-18T08:49:51;22.93;;;11.20;;
1829;SDS011;914;48.118;11.600;2022-12-18T08:52:17;17.70;;;9.30;;
1829;SDS011;914;48.118;11.600;2022-12-18T08:54:42;32.87;;;16.30;;
1829;SDS011;914;48.118;11.600;2022-12-18T08:57:08;31.50;;;14.40;;
1829;SDS011;914;48.118;11.600;2022-12-18T08:59:34;29.20;;;15.57;;
1829;SDS011;914;48.118;11.600;2022-12-18T09:01:59;26.73;;;13.97;;
1829;SDS011;914;48.118;11.600;2022-12-18T09:04:25;32.63;;;15.33;;
1829;SDS011;914;48.118;11.600;2022-12-18T09:06:51;28.47;;;15.47;;
1829;SDS011;914;48.118;11.600;2022-12-18T09:09:17;27.83;;;15.50;;
1829;SDS011;914;48.118;11.600;2022-12-18T09:11:42;31.40;;;16.03;;
1829;SDS011;914;48.118;11.600;2022-12-18T09:14:08;27.97;;;12.77;;
1829;SDS011;914;48.118;11.600;2022-12-18T09:16:35;26.43;;;14.80;;
1829;SDS011;914;48.118;11.600;2022-12-18T09:19:02;30.10;;;14.40;;
1829;SDS011;914;48.118;11.600;2022-12-18T09:21:30;27.77;;;14.70;;
1829;SDS011;914;48.118;11.600;2022-12-18T09:23:57;26.13;;;14.30;;
1829;SDS011;914;48.118;11.600;2022-12-18T09:26:24;28.10;;;14.50;;
1829;SDS011;914;48.118;11.600;2022-12-18T09:28:50;26.97;;;14.53;;
1829;SDS011;914;48.118;11.600;2022-12-18T09:31:18;31.33;;;15.70;;
1829;SDS011;914;48.118;11.600;2022-12-18T09:33:46;33.93;;;15.40;;
1829;SDS011;914;48.118;11.600;2022-12-18T09:36:12;30.27;;;15.77;;
1829;SDS011;914;48.118;11.600;2022-12-18T09:38:40;29.27;;;16.07;;
1829;SDS011;914;48.118;11.600;2022-12-18T09:43:55;29.87;;;15.77;;
1829;SDS011;914;48.118;11.600;2022-12-18T09:46:33;24.10;;;14.23;;
1829;SDS011;914;48.118;11.600;2022-12-18T09:49:03;29.23;;;14.57;;
1829;SDS011;914;48.118;11.600;2022-12-18T09:51:40;27.20;;;14.23;;
1829;SDS011;914;48.118;11.600;2022-12-18T09:54:35;30.43;;;15.23;;
1829;SDS011;914;48.118;11.600;2022-12-18T09:57:04;27.10;;;14.40;;
1829;SDS011;914;48.118;11.600;2022-12-18T09:59:37;26.53;;;14.53;;
1829;SDS011;914;48.118;11.600;2022-12-18T10:02:12;27.57;;;15.30;;
1829;SDS011;914;48.118;11.600;2022-12-18T10:04:38;25.83;;;13.27;;
1829;SDS011;914;48.118;11.600;2022-12-18T10:07:07;24.37;;;12.67;;
1829;SDS011;914;48.118;11.600;2022-12-18T10:12:35;28.90;;;14.13;;
1829;SDS011;914;48.118;11.600;2022-12-18T10:20:45;28.70;;;14.37;;
1829;SDS011;914;48.118;11.600;2022-12-18T10:26:09;28.13;;;14.27;;
1829;SDS011;914;48.118;11.600;2022-12-18T10:28:38;26.97;;;14.33;;
1829;SDS011;914;48.118;11.600;2022-12-18T10:31:06;24.13;;;13.23;;
1829;SDS011;914;48.118;11.600;2022-12-18T10:33:46;27.97;;;13.93;;
1829;SDS011;914;48.118;11.600;2022-12-18T10:36:12;25.33;;;13.07;;
1829;SDS011;914;48.118;11.600;2022-12-18T10:38:38;26.17;;;14.17;;
1829;SDS011;914;48.118;11.600;2022-12-18T10:41:25;26.30;;;13.37;;
1829;SDS011;914;48.118;11.600;2022-12-18T10:44:25;25.43;;;13.90;;
1829;SDS011;914;48.118;11.600;2022-12-18T10:46:48;26.10;;;13.53;;
1829;SDS011;914;48.118;11.600;2022-12-18T10:49:23;27.37;;;13.30;;
1829;SDS011;914;48.118;11.600;2022-12-18T10:52:03;28.90;;;14.83;;
1829;SDS011;914;48.118;11.600;2022-12-18T10:54:30;25.23;;;13.57;;
1829;SDS011;914;48.118;11.600;2022-12-18T10:59:54;26.60;;;14.33;;
1829;SDS011;914;48.118;11.600;2022-12-18T11:02:26;26.83;;;14.00;;
1829;SDS011;914;48.118;11.600;2022-12-18T11:04:59;25.00;;;12.97;;
1829;SDS011;914;48.118;11.600;2022-12-18T11:07:25;28.33;;;14.70;;
1829;SDS011;914;48.118;11.600;2022-12-18T11:10:00;25.33;;;13.70;;
1829;SDS011;914;48.118;11.600;2022-12-18T11:12:27;24.97;;;14.23;;
1829;SDS011;914;48.118;11.600;2022-12-18T11:14:54;30.83;;;15.17;;
1829;SDS011;914;48.118;11.600;2022-12-18T11:19:56;25.20;;;12.83;;
1829;SDS011;914;48.118;11.600;2022-12-18T11:22:30;26.87;;;14.07;;
1829;SDS011;914;48.118;11.600;2022-12-18T11:27:31;25.30;;;14.20;;
1829;SDS011;914;48.118;11.600;2022-12-18T11:30:08;27.23;;;14.67;;
1829;SDS011;914;48.118;11.600;2022-12-18T11:32:40;26.00;;;13.73;;
1829;SDS011;914;48.118;11.600;2022-12-18T11:35:26;25.43;;;13.67;;
1829;SDS011;914;48.118;11.600;2022-12-18T11:38:18;26.87;;;15.10;;
1829;SDS011;914;48.118;11.600;2022-12-18T11:44:26;26.13;;;14.40;;
1829;SDS011;914;48.118;11.600;2022-12-18T11:47:08;27.00;;;14.27;;
1829;SDS011;914;48.118;11.600;2022-12-18T11:49:40;27.33;;;14.03;;
1829;SDS011;914;48.118;11.600;2022-12-18T11:52:26;31.50;;;15.77;;
1829;SDS011;914;48.118;11.600;2022-12-18T11:54:59;27.93;;;14.33;;
1829;SDS011;914;48.118;11.600;2022-12-18T11:57:48;25.77;;;13.20;;
1829;SDS011;914;48.118;11.600;2022-12-18T12:00:22;25.40;;;13.90;;
1829;SDS011;914;48.118;11.600;2022-12-18T12:14:13;23.40;;;13.60;;
1829;SDS011;914;48.118;11.600;2022-12-18T12:17:02;26.17;;;14.13;;
1829;SDS011;914;48.118;11.600;2022-12-18T12:22:40;23.63;;;13.37;;
1829;SDS011;914;48.118;11.600;2022-12-18T12:28:13;26.27;;;13.47;;
1829;SDS011;914;48.118;11.600;2022-12-18T12:30:54;27.13;;;14.10;;
1829;SDS011;914;48.118;11.600;2022-12-18T12:33:46;25.80;;;12.63;;
1829;SDS011;914;48.118;11.600;2022-12-18T12:38:54;23.97;;;12.90;;
1829;SDS011;914;48.118;11.600;2022-12-18T12:41:23;24.03;;;13.07;;
1829;SDS011;914;48.118;11.600;2022-12-18T12:44:15;25.23;;;12.73;;
1829;SDS011;914;48.118;11.600;2022-12-18T12:46:48;27.57;;;13.90;;
1829;SDS011;914;48.118;11.600;2022-12-18T12:49:17;24.40;;;13.47;;
1829;SDS011;914;48.118;11.600;2022-12-18T12:54:42;27.20;;;13.67;;
1829;SDS011;914;48.118;11.600;2022-12-18T13:05:30;24.23;;;10.03;;
1829;SDS011;914;48.118;11.600;2022-12-18T13:08:23;27.20;;;13.83;;
1829;SDS011;914;48.118;11.600;2022-12-18T13:10:51;22.70;;;12.60;;
1829;SDS011;914;48.118;11.600;2022-12-18T13:13:55;24.93;;;13.03;;
1829;SDS011;914;48.118;11.600;2022-12-18T13:16:25;23.40;;;12.80;;
1829;SDS011;914;48.118;11.600;2022-12-18T13:18:56;24.03;;;13.93;;
1829;SDS011;914;48.118;11.600;2022-12-18T13:21:30;22.23;;;12.60;;
1829;SDS011;914;48.118;11.600;2022-12-18T13:24:43;24.17;;;13.20;;
1829;SDS011;914;48.118;11.600;2022-12-18T13:26:46;23.87;;;13.07;;
1829;SDS011;914;48.118;11.600;2022-12-18T13:29:14;26.10;;;12.83;;
1829;SDS011;914;48.118;11.600;2022-12-18T13:32:23;28.53;;;14.60;;
1829;SDS011;914;48.118;11.600;2022-12-18T13:35:37;23.23;;;13.00;;
1829;SDS011;914;48.118;11.600;2022-12-18T13:37:55;25.17;;;13.80;;
1829;SDS011;914;48.118;11.600;2022-12-18T13:48:29;26.17;;;13.47;;
1829;SDS011;914;48.118;11.600;2022-12-18T13:51:01;26.03;;;14.07;;
1829;SDS011;914;48.118;11.600;2022-12-18T13:53:33;28.53;;;14.13;;
1829;SDS011;914;48.118;11.600;2022-12-18T13:56:02;26.17;;;14.90;;
1829;SDS011;914;48.118;11.600;2022-12-18T13:58:28;31.47;;;15.00;;
1829;SDS011;914;48.118;11.600;2022-12-18T14:00:54;28.00;;;14.17;;
1829;SDS011;914;48.118;11.600;2022-12-18T14:03:24;23.50;;;13.17;;
1829;SDS011;914;48.118;11.600;2022-12-18T14:05:53;26.43;;;14.30;;
1829;SDS011;914;48.118;11.600;2022-12-18T14:08:40;27.47;;;15.03;;
1829;SDS011;914;48.118;11.600;2022-12-18T14:11:07;29.40;;;15.57;;
1829;SDS011;914;48.118;11.600;2022-12-18T14:13:45;28.93;;;14.10;;
1829;SDS011;914;48.118;11.600;2022-12-18T14:16:12;27.87;;;14.17;;
1829;SDS011;914;48.118;11.600;2022-12-18T14:18:53;28.83;;;14.67;;
1829;SDS011;914;48.118;11.600;2022-12-18T14:21:25;27.87;;;14.40;;
1829;SDS011;914;48.118;11.600;2022-12-18T14:26:39;28.17;;;15.80;;
1829;SDS011;914;48.118;11.600;2022-12-18T14:29:19;28.70;;;15.00;;
1829;SDS011;914;48.118;11.600;2022-12-18T14:34:42;28.80;;;13.90;;
1829;SDS011;914;48.118;11.600;2022-12-18T14:37:13;27.00;;;14.53;;
1829;SDS011;914;48.118;11.600;2022-12-18T14:39:51;26.70;;;14.63;;
1829;SDS011;914;48.118;11.600;2022-12-18T14:42:25;30.27;;;15.37;;
1829;SDS011;914;48.118;11.600;2022-12-18T14:47:58;28.33;;;14.80;;
1829;SDS011;914;48.118;11.600;2022-12-18T14:50:24;26.00;;;14.37;;
1829;SDS011;914;48.118;11.600;2022-12-18T14:52:51;27.23;;;14.77;;
1829;SDS011;914;48.118;11.600;2022-12-18T14:55:17;30.97;;;15.07;;
1829;SDS011;914;48.118;11.600;2022-12-18T14:57:44;29.40;;;15.87;;
1829;SDS011;914;48.118;11.600;2022-12-18T15:00:15;29.77;;;15.10;;
1829;SDS011;914;48.118;11.600;2022-12-18T15:02:48;28.87;;;14.83;;
1829;SDS011;914;48.118;11.600;2022-12-18T15:05:27;28.23;;;15.57;;
1829;SDS011;914;48.118;11.600;2022-12-18T15:07:55;32.80;;;18.10;;
1829;SDS011;914;48.118;11.600;2022-12-18T15:10:25;26.00;;;15.13;;
1829;SDS011;914;48.118;11.600;2022-12-18T15:23:16;26.83;;;15.20;;
1829;SDS011;914;48.118;11.600;2022-12-18T15:25:48;29.27;;;15.30;;
1829;SDS011;914;48.118;11.600;2022-12-18T15:28:24;31.73;;;16.57;;
1829;SDS011;914;48.118;11.600;2022-12-18T15:31:01;34.07;;;16.90;;
1829;SDS011;914;48.118;11.600;2022-12-18T15:33:33;27.63;;;13.07;;
1829;SDS011;914;48.118;11.600;2022-12-18T15:36:03;31.13;;;15.17;;
1829;SDS011;914;48.118;11.600;2022-12-18T15:38:30;27.63;;;14.57;;
1829;SDS011;914;48.118;11.600;2022-12-18T15:40:56;30.13;;;15.90;;
1829;SDS011;914;48.118;11.600;2022-12-18T15:43:23;29.27;;;15.57;;
1829;SDS011;914;48.118;11.600;2022-12-18T15:46:02;31.30;;;16.17;;
1829;SDS011;914;48.118;11.600;2022-12-18T15:48:31;27.80;;;16.07;;
1829;SDS011;914;48.118;11.600;2022-12-18T15:50:59;33.30;;;16.33;;
1829;SDS011;914;48.118;11.600;2022-12-18T15:53:27;33.30;;;17.47;;
1829;SDS011;914;48.118;11.600;2022-12-18T15:55:57;32.73;;;17.37;;
1829;SDS011;914;48.118;11.600;2022-12-18T15:58:42;29.37;;;14.20;;
1829;SDS011;914;48.118;11.600;2022-12-18T16:01:08;30.30;;;16.13;;
1829;SDS011;914;48.118;11.600;2022-12-18T16:03:37;30.67;;;15.80;;
1829;SDS011;914;48.118;11.600;2022-12-18T16:06:03;34.50;;;17.73;;
1829;SDS011;914;48.118;11.600;2022-12-18T16:08:29;32.73;;;16.57;;
1829;SDS011;914;48.118;11.600;2022-12-18T16:10:56;27.47;;;14.13;;
1829;SDS011;914;48.118;11.600;2022-12-18T16:13:24;29.83;;;15.40;;
1829;SDS011;914;48.118;11.600;2022-12-18T16:15:50;30.33;;;14.77;;
1829;SDS011;914;48.118;11.600;2022-12-18T16:18:16;34.20;;;15.37;;
1829;SDS011;914;48.118;11.600;2022-12-18T16:20:41;34.00;;;17.10;;
1829;SDS011;914;48.118;11.600;2022-12-18T16:23:07;35.87;;;17.67;;
1829;SDS011;914;48.118;11.600;2022-12-18T16:25:33;30.57;;;15.53;;
1829;SDS011;914;48.118;11.600;2022-12-18T16:27:58;31.00;;;15.67;;
1829;SDS011;914;48.118;11.600;2022-12-18T16:30:25;30.93;;;15.87;;
1829;SDS011;914;48.118;11.600;2022-12-18T16:32:53;32.17;;;16.30;;
1829;SDS011;914;48.118;11.600;2022-12-18T16:35:19;28.53;;;15.70;;
1829;SDS011;914;48.118;11.600;2022-12-18T16:37:45;32.13;;;16.97;;
1829;SDS011;914;48.118;11.600;2022-12-18T16:40:12;36.20;;;17.67;;
1829;SDS011;914;48.118;11.600;2022-12-18T16:42:41;34.80;;;18.27;;
1829;SDS011;914;48.118;11.600;2022-12-18T16:45:09;39.10;;;17.03;;
1829;SDS011;914;48.118;11.600;2022-12-18T16:47:37;35.97;;;17.47;;
1829;SDS011;914;48.118;11.600;2022-12-18T16:50:03;33.70;;;18.50;;
1829;SDS011;914;48.118;11.600;2022-12-18T16:52:30;33.03;;;16.03;;
1829;SDS011;914;48.118;11.600;2022-12-18T16:54:56;37.27;;;18.20;;
1829;SDS011;914;48.118;11.600;2022-12-18T16:57:22;35.00;;;17.10;;
1829;SDS011;914;48.118;11.600;2022-12-18T16:59:48;33.17;;;18.63;;